METAR stanice u blizini

 

LYNI - Nis, Yugoslavia
Distance from station: JZ 40km
Ažurirano: 23/08/2019 03:00
Vedro
Vedro
 Pravac vetra IJI
Vetar: IJI 9 km/h
Temperatura: 20°C
Tačka rose: 14°C
Vlažnost: 69%
Pritisak: 1021 hPa
Pregled: Vedro
Vidljivost: greater than 10 km
2019/08/23 01:00 LYNI 230100Z 11005KT CAVOK 20/14 Q1021 NOSIG
LYKV - Kraljevo, Yugoslavia
Distance from station: ZSZ 136km
Ažurirano: 23/08/2019 03:00
Vedro
Vedro
 Pravac vetra calm
Vetar: Tišina
Temperatura: 17°C
Tačka rose: 17°C
Vlažnost: 100%
Pritisak: 1022 hPa
Pregled: Vedro
Vidljivost: greater than 10 km
2019/08/23 01:00 LYKV 230100Z 00000KT CAVOK 17/17 Q1022 NOSIG
LBSF - Sofia (observato, Bulgaria
Distance from station: JI 138km
Ažurirano: 23/08/2019 03:00
Vedro
Vedro
 Pravac vetra JJI
Vetar: JJI 7 km/h
Temperatura: 18°C
Tačka rose: 13°C
Vlažnost: 73%
Pritisak: 1023 hPa
Pregled: Vedro
Vidljivost: greater than 10 km
2019/08/23 01:00 LBSF 230100Z 15004KT CAVOK 18/13 Q1023 NOSIG
 
BKPR - Prishtina, Yugoslavia
Distance from station: JZ 147km
Ažurirano: 23/08/2019 03:00
Vedro
Vedro
 Pravac vetra calm
Vetar: Tišina
Temperatura: 19°C
Tačka rose: 13°C
Vlažnost: 68%
Pritisak: 1022 hPa
Pregled: Vedro
Vidljivost: greater than 10 km
2019/08/23 01:00 BKPR 230100Z 00000KT CAVOK 19/13 Q1022 NOSIG
LRCV - Craiova, Romania
Distance from station: SI 154km
Ažurirano: 23/08/2019 03:00
Vedro
Vedro
 Pravac vetra ISI
Vetar: ISI 13 km/h
Temperatura: 20°C
Tačka rose: 13°C
Vlažnost: 64%
Pritisak: 1022 hPa
Oblaci: Vedro
Vidljivost: 10 km
2019/08/23 01:00 LRCV 230100Z AUTO 06007KT 9999 NCD 20/13 Q1022
LWSK - Skopje/Petrovac, Macedonia
Distance from station: JJZ 185km
Ažurirano: 23/08/2019 03:00
Vedro
Vedro
 Pravac vetra JI
Vetar: JI 4 km/h
Temperatura: 22°C
Tačka rose: 13°C
Vlažnost: 57%
Pritisak: 1020 hPa
Pregled: Vedro
Vidljivost: greater than 10 km
2019/08/23 01:00 LWSK 230100Z 13002KT CAVOK 22/13 Q1020 NOSIG
 
LYVR - Vrsac, Yugoslavia
Distance from station: SSZ 189km
Ažurirano: 23/08/2019 03:00
Vedro
Vedro
 Pravac vetra calm
Vetar: Tišina
Temperatura: 21°C
Tačka rose: 18°C
Vlažnost: 83%
Pritisak: 1021 hPa
Pregled: Vedro
Vidljivost: greater than 10 km
2019/08/23 01:00 LYVR 230100Z 00000KT CAVOK 21/18 Q1021 NOSIG
LYUZ - Uzice-Ponikve, Yugoslavia
Distance from station: Z 207km
Ažurirano: 23/08/2019 03:00
Vedro
Vedro
 Pravac vetra calm
Vetar: Tišina
Temperatura: 15°C
Tačka rose: 15°C
Vlažnost: 100%
Pritisak: 1026 hPa
Pregled: Vedro
Vidljivost: greater than 10 km
2019/08/23 01:00 LYUZ 230100Z AUTO 00000KT CAVOK 15/15 Q1026
LYBE - Belgrade/Surcin, Yugoslavia
Distance from station: SZ 209km
Ažurirano: 23/08/2019 03:00
Vedro
Vedro
 Pravac vetra JJZ
Vetar: JJZ 7 km/h
Temperatura: 21°C
Tačka rose: 19°C
Vlažnost: 88%
Pritisak: 1021 hPa
Pregled: Vedro
Vidljivost: greater than 10 km
2019/08/23 01:00 LYBE 230100Z 20004KT CAVOK 21/19 Q1021 NOSIG
 
LYBT - Batajnica, Yugoslavia
Distance from station: SZ 219km
Ažurirano: 23/08/2019 03:00
Vedro
Vedro
 Pravac vetra J
Vetar: J 4 km/h
Temperatura: 19°C
Tačka rose: 19°C
Vlažnost: 100%
Pritisak: 1021 hPa
Pregled: Vedro
Vidljivost: greater than 10 km
2019/08/23 01:00 LYBT 230100Z 17002KT CAVOK 19/19 Q1021 NOSIG
LRTR - Timisoara/Giarma, Romania
Distance from station: SSZ 260km
Ažurirano: 23/08/2019 03:00
Vedro
Vedro
 Pravac vetra SSI
Vetar: SSI 7 km/h
Temperatura: 19°C
Tačka rose: 18°C
Vlažnost: 94%
Pritisak: 1021 hPa
Pregled: Vedro
Vidljivost: greater than 10 km
2019/08/23 01:00 LRTR 230100Z 03004KT 360V060 CAVOK 19/18 Q1021
LBPD - Plovdiv, Bulgaria
Distance from station: JI 263km
Ažurirano: 23/08/2019 03:00
Vedro
Vedro
 Pravac vetra varies
Vetar: varies 2 km/h
Temperatura: 19°C
Tačka rose: 14°C
Vlažnost: 73%
Pritisak: 1021 hPa
Oblaci: Vedro
Vidljivost: 10 km
2019/08/23 01:00 LBPD 230100Z AUTO VRB01KT 9999 NCD 19/14 Q1021
 
LYPG - Podgorica(Titogr, Yugoslavia
Distance from station: ZJZ 278km
Ažurirano: 23/08/2019 03:00
Delimično oblačno
Delimično oblačno
 Pravac vetra S
Vetar: S 13 km/h
Temperatura: 27°C
Tačka rose: 12°C
Vlažnost: 39%
Pritisak: 1017 hPa
Oblaci: Delimično oblačno
Vidljivost: 10 km
Cloud details: Delimično oblačno 3048 m
2019/08/23 01:00 LYPG 230100Z 35007KT 9999 SCT100 27/12 Q1017 NOSIG
LBGO - Gorna Orechovist, Bulgaria
Distance from station: I 285km
Ažurirano: 23/08/2019 03:00
Vedro
Vedro
 Pravac vetra varies
Vetar: varies 4 km/h
Temperatura: 20°C
Tačka rose: 15°C
Vlažnost: 73%
Pritisak: 1021 hPa
Oblaci: Vedro
Vidljivost: 10 km
2019/08/23 01:00 LBGO 230100Z AUTO VRB02KT 9999 NCD 20/15 Q1021
LRSB - Sibiu/Turnisor, Romania
Distance from station: SSI 286km
Ažurirano: 23/08/2019 03:00
Vedro
Vedro
 Pravac vetra J
Vetar: J 6 km/h
Temperatura: 16°C
Tačka rose: 13°C
Vlažnost: 83%
Pritisak: 1024 hPa
Oblaci: Vedro
Vidljivost: 10 km
2019/08/23 01:00 LRSB 230100Z AUTO 17003KT 110V190 9999 NCD 16/13 Q1024
 
LWOH - Ohrid, Macedonia
Distance from station: JJZ 292km
Ažurirano: 22/08/2019 21:00
NOT Current
Few Clouds
Few Clouds
 Pravac vetra ZSZ
Vetar: ZSZ 6 km/h
Temperatura: 21°C
Tačka rose: 10°C
Vlažnost: 50%
Pritisak: 1021 hPa
Oblaci: Few Clouds
Vidljivost: 10 km
Cloud details: Few Clouds 1524 m
2019/08/22 19:00 LWOH 221900Z 29003KT 9999 FEW050 21/10 Q1021
LQTZ - Tuzla, Yugoslavia
Distance from station: ZSZ 298km
Ažurirano: 23/08/2019 00:00
NOT Current
Vedro
Vedro
 Pravac vetra varies
Vetar: varies 4 km/h
Temperatura: 18°C
Tačka rose: 18°C
Vlažnost: 100%
Pritisak: 1023 hPa
Pregled: Vedro
Vidljivost: greater than 10 km
2019/08/22 22:00 LQTZ 222200Z VRB02KT CAVOK 18/18 Q1023
LRAR - Arad, Romania
Distance from station: SSZ 301km
Ažurirano: 23/08/2019 03:00
Vedro
Vedro
 Pravac vetra S
Vetar: S 6 km/h
Temperatura: 18°C
Tačka rose: 16°C
Vlažnost: 88%
Pritisak: 1021 hPa
Pregled: Vedro
Vidljivost: greater than 10 km
2019/08/23 01:00 LRAR 230100Z 36003KT CAVOK 18/16 Q1021
 
LYTV - Tivat, Yugoslavia
Distance from station: ZJZ 315km
Ažurirano: 23/08/2019 03:00
Vedro
Vedro
 Pravac vetra IJI
Vetar: IJI 2 km/h
Temperatura: 20°C
Tačka rose: 15°C
Vlažnost: 73%
Pritisak: 1017 hPa
Pregled: Vedro
Vidljivost: greater than 10 km
2019/08/23 01:00 LYTV 230100Z 12001KT CAVOK 20/15 Q1017
LATI - Tirana, Albania
Distance from station: JZ 316km
Ažurirano: 23/08/2019 03:20
Vedro
Vedro
 Pravac vetra varies
Vetar: varies 2 km/h
Temperatura: 20°C
Tačka rose: 17°C
Vlažnost: 83%
Pritisak: 1017 hPa
Pregled: Vedro
Vidljivost: greater than 10 km
2019/08/23 01:20 LATI 230120Z VRB01KT CAVOK 20/17 Q1017 NOSIG
LQBK - Banja Luka, Yugoslavia
Distance from station: SZ 426km
Ažurirano: 23/08/2019 03:00
Vedro
Vedro
 Pravac vetra calm
Vetar: Tišina
Temperatura: 18°C
Tačka rose: 16°C
Vlažnost: 88%
Pritisak: 1023 hPa
Pregled: Vedro
Vidljivost: greater than 10 km
2019/08/23 01:00 LQBK 230100Z 00000KT CAVOK 18/16 Q1023 NOSIG
 
LDOS - Osijek, Croatia
Distance from station: SSZ 360km
Ažurirano: 23/08/2019 03:00
Vedro
Vedro
 Pravac vetra SZ
Vetar: SZ 11 km/h
Temperatura: 19°C
Tačka rose: 18°C
Vlažnost: 94%
Pritisak: 1022 hPa
Pregled: Vedro
Vidljivost: greater than 10 km
2019/08/23 01:00 LDOS 230100Z 32006KT CAVOK 19/18 Q1022
LDDU - Dubrovnik-Cilipi, Croatia
Distance from station: JZ 352km
Ažurirano: 23/08/2019 03:00
Vedro
Vedro
 Pravac vetra SI
Vetar: SI 11 km/h
Temperatura: 28°C
Tačka rose: 10°C
Vlažnost: 32%
Pritisak: 1018 hPa
Pregled: Vedro
Vidljivost: greater than 10 km
2019/08/23 01:00 LDDU 230100Z 04006KT 340V080 CAVOK 28/10 Q1018
LQMO - Mostar Airport, Bosnia-Herzegovina
Distance from station: Z 359km
Ažurirano: 23/08/2019 03:00
Few Clouds
Few Clouds
 Pravac vetra JJI
Vetar: JJI 6 km/h
Temperatura: 23°C
Tačka rose: 14°C
Vlažnost: 57%
Pritisak: 1017 hPa
Oblaci: Few Clouds
Vidljivost: 10 km
Cloud details: Few Clouds 1524 m
2019/08/23 01:00 LQMO 230100Z 16003KT 120V260 9999 FEW050 23/14 Q1017
 
LQSA - Sarajevo/Butmir, Yugoslavia
Distance from station: Z 311km
Ažurirano: 23/08/2019 03:00
Vedro
Vedro
 Pravac vetra varies
Vetar: varies 4 km/h
Temperatura: 18°C
Tačka rose: 17°C
Vlažnost: 94%
Pritisak: 1024 hPa
Pregled: Vedro
Vidljivost: greater than 10 km
2019/08/23 01:00 LQSA 230100Z VRB02KT CAVOK 18/17 Q1024
LDSP - Split/Kastel Sta, Croatia
Distance from station: Z 468km
Ažurirano: 23/08/2019 03:00
Vedro
Vedro
 Pravac vetra calm
Vetar: Tišina
Temperatura: 24°C
Tačka rose: 16°C
Vlažnost: 61%
Pritisak: 1017 hPa
Pregled: Vedro
Vidljivost: greater than 10 km
2019/08/23 01:00 LDSP 230100Z AUTO 00000KT CAVOK 24/16 Q1017
LDZD - Zadar/Zemunik, Croatia
Distance from station: ZSZ 567km
Ažurirano: 23/08/2019 03:00
Vedro
Vedro
 Pravac vetra ISI
Vetar: ISI 11 km/h
Temperatura: 26°C
Tačka rose: 17°C
Vlažnost: 58%
Pritisak: 1018 hPa
Pregled: Vedro
Vidljivost: greater than 10 km
2019/08/23 01:00 LDZD 230100Z 07006KT 350V130 CAVOK 26/17 Q1018
 
LDZA - Zagreb/Pleso, Croatia
Distance from station: SZ 555km
Ažurirano: 23/08/2019 03:00
Pretežno oblačno
Pretežno oblačno
 Pravac vetra JZ
Vetar: JZ 7 km/h
Temperatura: 20°C
Tačka rose: 17°C
Vlažnost: 83%
Pritisak: 1023 hPa
Oblaci: Pretežno oblačno
Vidljivost: 10 km
Cloud details: Pretežno oblačno 1463 m
2019/08/23 01:00 LDZA 230100Z 23004KT 9999 BKN048 20/17 Q1023 NOSIG
LJCE - Cerklje, Slovenia
Distance from station: SZ 680km
Ažurirano: 23/08/2019 03:00
Delimično oblačno
Delimično oblačno
 Pravac vetra I
Vetar: I 6 km/h
Temperatura: 19°C
Tačka rose: 18°C
Vlažnost: 94%
Pritisak: 1024 hPa
Oblaci: Delimično oblačno
Vidljivost: 10 km
2019/08/23 01:00 LJCE 230100Z AUTO 08003KT 9999 NSC 19/18 Q1024
LJMB - Maribor, Slovenia
Distance from station: SZ 616km
Ažurirano: 23/08/2019 03:00
Slaba kiša, Showers, Oblačno
Slaba kiša, Showers, Oblačno
 Pravac vetra S
Vetar: S 9 km/h
Temperatura: 18°C
Tačka rose: 16°C
Vlažnost: 88%
Pritisak: 1025 hPa
Pregled: Slaba kiša, Showers
Oblaci: Oblačno
Vidljivost: 10 km
Cloud details: Delimično oblačno 1097 m
Few Clouds 1311 m
Oblačno 2743 m
2019/08/23 01:00 LJMB 230100Z 35005KT 310V050 9999 -SHRA SCT036 FEW043TCU OVC090 18/16 Q1025
 
LJLJ - Ljubljana/Brnik, Slovenia
Distance from station: SZ 671km
Ažurirano: 23/08/2019 03:00
Pretežno oblačno
Pretežno oblačno
 Pravac vetra varies
Vetar: varies 4 km/h
Temperatura: 17°C
Tačka rose: 17°C
Vlažnost: 100%
Pritisak: 1025 hPa
Oblaci: Pretežno oblačno
Vidljivost: 10 km
Cloud details: Few Clouds 1006 m
Pretežno oblačno 1372 m
Pretežno oblačno 4572 m
2019/08/23 01:00 LJLJ 230100Z VRB02KT 9999 FEW033 BKN045 BKN150 17/17 Q1025 TEMPO SHRA
LDRI - Rijeka, Croatia
Distance from station: SZ 650km
Ažurirano: 23/08/2019 03:00
Delimično oblačno
Delimično oblačno
 Pravac vetra SSI
Vetar: SSI 13 km/h
Temperatura: 25°C
Tačka rose: 16°C
Vlažnost: 57%
Pritisak: 1020 hPa
Oblaci: Delimično oblačno
Vidljivost: 10 km
Cloud details: Delimično oblačno 1524 m
2019/08/23 01:00 LDRI 230100Z 03007KT 360V070 9999 SCT050 25/16 Q1020
LDPL - Pula, Croatia
Distance from station: ZSZ 686km
Ažurirano: 23/08/2019 03:00
Vedro
Vedro
 Pravac vetra SSI
Vetar: SSI 13 km/h
Temperatura: 23°C
Tačka rose: 17°C
Vlažnost: 69%
Pritisak: 1019 hPa
Pregled: Vedro
Vidljivost: greater than 10 km
2019/08/23 01:00 LDPL 230100Z 03007KT CAVOK 23/17 Q1019
 
LJPZ - Portorož, Slovenia
Distance from station: ZSZ 720km
Ažurirano: 23/08/2019 03:00
Delimično oblačno
Delimično oblačno
 Pravac vetra JJI
Vetar: JJI 2 km/h
Temperatura: 22°C
Tačka rose: 17°C
Vlažnost: 73%
Pritisak: 1019 hPa
Oblaci: Delimično oblačno
Vidljivost: 10 km
2019/08/23 01:00 LJPZ 230100Z AUTO 16001KT 9999 NSC 22/17 Q1019